FDX23 VVDN-VVTS
Flight info
| Callsign | FDX23 |
|---|---|
| Flight time | 1h 2m |
| Altitude | 32000 |
| Route | SADIN1G SADIN Q1 DOVIN DALAP2J |
| Aircraft | B77L/H-SDE1E2E3FGHIJ2J3J4J5M1RWXY/LB1D1 |
Departure
| Time | 2026-04-21 14:47 |
|---|---|
| Airport | Da Nang International Airport (VVDN) |
Arrival
| Time | 2026-04-21 15:49 |
|---|---|
| Airport | Tan Son Nhat International Airport (VVTS) |
| Time | Latitude | Longitude | Altitude | Speed | Heading |
|---|---|---|---|---|---|
| 2026-04-21 13:59 | 16.05778 | 108.20118 | 39 ft | 0 kts | 82° |
| 2026-04-21 14:28 | 16.05776 | 108.20102 | 37 ft | 2 kts | 82° |
| 2026-04-21 14:29 | 16.05773 | 108.20084 | 36 ft | 2 kts | 82° |
| 2026-04-21 14:29 | 16.05771 | 108.20066 | 35 ft | 2 kts | 82° |
| 2026-04-21 14:29 | 16.05768 | 108.20048 | 35 ft | 2 kts | 82° |
| 2026-04-21 14:29 | 16.05770 | 108.20029 | 35 ft | 3 kts | 124° |
| 2026-04-21 14:30 | 16.05783 | 108.20016 | 36 ft | 3 kts | 161° |
| 2026-04-21 14:30 | 16.05799 | 108.20011 | 36 ft | 2 kts | 161° |
| 2026-04-21 14:30 | 16.05802 | 108.20009 | 36 ft | 0 kts | 162° |
| 2026-04-21 14:30 | 16.05782 | 108.20007 | 35 ft | 4 kts | 198° |
| 2026-04-21 14:31 | 16.05779 | 108.20006 | 35 ft | 0 kts | 200° |
| 2026-04-21 14:31 | 16.05763 | 108.19998 | 37 ft | 9 kts | 201° |
| 2026-04-21 14:31 | 16.05711 | 108.19993 | 38 ft | 14 kts | 176° |
| 2026-04-21 14:31 | 16.05658 | 108.19999 | 38 ft | 3 kts | 173° |
| 2026-04-21 14:32 | 16.05657 | 108.19999 | 38 ft | 0 kts | 173° |
| 2026-04-21 14:34 | 16.05634 | 108.20002 | 39 ft | 13 kts | 172° |
| 2026-04-21 14:34 | 16.05489 | 108.20022 | 38 ft | 26 kts | 168° |
| 2026-04-21 14:34 | 16.05290 | 108.20052 | 38 ft | 30 kts | 172° |
| 2026-04-21 14:35 | 16.05138 | 108.20074 | 39 ft | 16 kts | 172° |
| 2026-04-21 14:35 | 16.05029 | 108.20089 | 38 ft | 16 kts | 172° |
| 2026-04-21 14:35 | 16.04921 | 108.20106 | 38 ft | 16 kts | 172° |
| 2026-04-21 14:35 | 16.04813 | 108.20123 | 38 ft | 16 kts | 172° |
| 2026-04-21 14:36 | 16.04704 | 108.20138 | 38 ft | 16 kts | 173° |
| 2026-04-21 14:36 | 16.04594 | 108.20153 | 38 ft | 16 kts | 172° |
| 2026-04-21 14:36 | 16.04470 | 108.20171 | 37 ft | 23 kts | 172° |
| 2026-04-21 14:36 | 16.04304 | 108.20195 | 38 ft | 24 kts | 172° |
| 2026-04-21 14:37 | 16.04211 | 108.20209 | 38 ft | 2 kts | 171° |
| 2026-04-21 14:37 | 16.04128 | 108.20222 | 39 ft | 22 kts | 171° |
| 2026-04-21 14:37 | 16.03929 | 108.20251 | 39 ft | 31 kts | 172° |
| 2026-04-21 14:37 | 16.03721 | 108.20279 | 39 ft | 30 kts | 172° |
| 2026-04-21 14:38 | 16.03530 | 108.20306 | 39 ft | 27 kts | 172° |
| 2026-04-21 14:38 | 16.03351 | 108.20333 | 38 ft | 25 kts | 172° |
| 2026-04-21 14:38 | 16.03195 | 108.20355 | 37 ft | 18 kts | 172° |
| 2026-04-21 14:38 | 16.03078 | 108.20373 | 37 ft | 17 kts | 172° |
| 2026-04-21 14:39 | 16.03015 | 108.20380 | 37 ft | 0 kts | 176° |
| 2026-04-21 14:41 | 16.02993 | 108.20378 | 37 ft | 6 kts | 191° |
| 2026-04-21 14:41 | 16.02955 | 108.20359 | 37 ft | 0 kts | 218° |
| 2026-04-21 14:41 | 16.02953 | 108.20357 | 37 ft | 1 kts | 218° |
| 2026-04-21 14:42 | 16.02949 | 108.20354 | 37 ft | 1 kts | 219° |
| 2026-04-21 14:42 | 16.02948 | 108.20353 | 37 ft | 0 kts | 221° |
| 2026-04-21 14:42 | 16.02936 | 108.20337 | 36 ft | 7 kts | 236° |
| 2026-04-21 14:43 | 16.02928 | 108.20279 | 35 ft | 3 kts | 288° |
| 2026-04-21 14:43 | 16.02989 | 108.20244 | 35 ft | 5 kts | 353° |
| 2026-04-21 14:43 | 16.03002 | 108.20242 | 35 ft | 0 kts | 352° |
| 2026-04-21 14:46 | 16.03058 | 108.20235 | 35 ft | 38 kts | 353° |
| 2026-04-21 14:46 | 16.03615 | 108.20154 | 39 ft | 123 kts | 352° |
| 2026-04-21 14:47 | 16.04735 | 108.19991 | 40 ft | 201 kts | 352° |
| 2026-04-21 14:47 | 16.06213 | 108.19772 | 480 ft | 229 kts | 352° |
| 2026-04-21 14:47 | 16.07837 | 108.19592 | 1230 ft | 231 kts | 359° |
| 2026-04-21 14:47 | 16.09415 | 108.19590 | 1978 ft | 227 kts | 1° |
| 2026-04-21 14:48 | 16.11071 | 108.19594 | 2089 ft | 249 kts | 360° |
| 2026-04-21 14:48 | 16.12862 | 108.19575 | 2395 ft | 263 kts | 359° |
| 2026-04-21 14:48 | 16.14709 | 108.19644 | 2797 ft | 269 kts | 13° |
| 2026-04-21 14:48 | 16.16371 | 108.20532 | 3216 ft | 274 kts | 47° |
| 2026-04-21 14:49 | 16.17317 | 108.22222 | 3747 ft | 273 kts | 78° |
| 2026-04-21 14:49 | 16.17539 | 108.24145 | 4294 ft | 272 kts | 91° |
| 2026-04-21 14:49 | 16.17549 | 108.26157 | 4846 ft | 277 kts | 91° |
| 2026-04-21 14:49 | 16.17558 | 108.28137 | 5462 ft | 278 kts | 90° |
| 2026-04-21 14:50 | 16.17578 | 108.30159 | 6057 ft | 281 kts | 90° |
| 2026-04-21 14:50 | 16.17603 | 108.32206 | 6606 ft | 284 kts | 90° |
| 2026-04-21 14:50 | 16.17628 | 108.34273 | 7165 ft | 286 kts | 91° |
| 2026-04-21 14:50 | 16.17367 | 108.36318 | 7628 ft | 288 kts | 113° |
| 2026-04-21 14:51 | 16.16197 | 108.37979 | 8090 ft | 288 kts | 146° |
| 2026-04-21 14:51 | 16.14361 | 108.38765 | 8583 ft | 288 kts | 173° |
| 2026-04-21 14:51 | 16.12359 | 108.38878 | 9018 ft | 290 kts | 180° |
| 2026-04-21 14:51 | 16.10319 | 108.38887 | 9473 ft | 295 kts | 180° |
| 2026-04-21 14:52 | 16.08249 | 108.38899 | 10022 ft | 296 kts | 180° |
| 2026-04-21 14:52 | 16.06173 | 108.38919 | 10267 ft | 311 kts | 180° |
| 2026-04-21 14:52 | 16.03950 | 108.38945 | 10382 ft | 326 kts | 180° |
| 2026-04-21 14:52 | 16.01636 | 108.38975 | 10471 ft | 338 kts | 180° |
| 2026-04-21 14:53 | 15.99245 | 108.39008 | 10561 ft | 349 kts | 179° |
| 2026-04-21 14:53 | 15.96775 | 108.39042 | 10651 ft | 360 kts | 180° |
| 2026-04-21 14:53 | 15.94251 | 108.39076 | 10710 ft | 370 kts | 179° |
| 2026-04-21 14:53 | 15.91647 | 108.39110 | 10805 ft | 379 kts | 180° |
| 2026-04-21 14:54 | 15.88984 | 108.39144 | 10947 ft | 385 kts | 180° |
| 2026-04-21 14:54 | 15.86259 | 108.39179 | 11181 ft | 388 kts | 180° |
| 2026-04-21 14:54 | 15.83556 | 108.39214 | 11519 ft | 389 kts | 180° |
| 2026-04-21 14:54 | 15.80842 | 108.39250 | 11834 ft | 390 kts | 180° |
| 2026-04-21 14:55 | 15.78120 | 108.39286 | 12144 ft | 392 kts | 180° |
| 2026-04-21 14:55 | 15.75384 | 108.39322 | 12429 ft | 394 kts | 180° |
| 2026-04-21 14:55 | 15.72636 | 108.39357 | 12707 ft | 396 kts | 180° |
| 2026-04-21 14:55 | 15.69911 | 108.39392 | 13015 ft | 397 kts | 180° |
| 2026-04-21 14:56 | 15.67140 | 108.39427 | 13298 ft | 399 kts | 180° |
| 2026-04-21 14:56 | 15.64357 | 108.39463 | 13563 ft | 401 kts | 180° |
| 2026-04-21 14:56 | 15.61568 | 108.39499 | 13808 ft | 403 kts | 180° |
| 2026-04-21 14:56 | 15.58757 | 108.39535 | 14045 ft | 404 kts | 180° |
| 2026-04-21 14:57 | 15.55940 | 108.39567 | 14281 ft | 408 kts | 181° |
| 2026-04-21 14:57 | 15.53098 | 108.39350 | 14684 ft | 409 kts | 191° |
| 2026-04-21 14:57 | 15.50377 | 108.38455 | 15114 ft | 413 kts | 205° |
| 2026-04-21 14:57 | 15.47805 | 108.37128 | 15700 ft | 413 kts | 209° |
| 2026-04-21 14:58 | 15.45287 | 108.35695 | 16180 ft | 412 kts | 209° |
| 2026-04-21 14:58 | 15.42756 | 108.34282 | 16331 ft | 415 kts | 208° |
| 2026-04-21 14:58 | 15.40170 | 108.32925 | 16441 ft | 419 kts | 206° |
| 2026-04-21 14:58 | 15.37531 | 108.31619 | 16587 ft | 421 kts | 205° |
| 2026-04-21 14:59 | 15.34857 | 108.30343 | 16778 ft | 422 kts | 205° |
| 2026-04-21 14:59 | 15.32186 | 108.29090 | 16966 ft | 422 kts | 205° |
| 2026-04-21 14:59 | 15.29503 | 108.27836 | 17134 ft | 423 kts | 205° |
| 2026-04-21 14:59 | 15.26814 | 108.26575 | 17319 ft | 424 kts | 205° |
| 2026-04-21 15:00 | 15.24160 | 108.25327 | 17468 ft | 426 kts | 205° |
| 2026-04-21 15:00 | 15.21460 | 108.24053 | 17622 ft | 427 kts | 205° |
| 2026-04-21 15:00 | 15.18754 | 108.22775 | 17767 ft | 428 kts | 205° |
| 2026-04-21 15:00 | 15.16043 | 108.21494 | 17922 ft | 429 kts | 205° |
| 2026-04-21 15:01 | 15.13319 | 108.20209 | 18048 ft | 430 kts | 205° |
| 2026-04-21 15:01 | 15.10595 | 108.18924 | 18207 ft | 431 kts | 205° |
| 2026-04-21 15:01 | 15.07811 | 108.17778 | 18302 ft | 434 kts | 193° |
| 2026-04-21 15:01 | 15.04796 | 108.17597 | 18615 ft | 435 kts | 174° |
| 2026-04-21 15:02 | 15.01805 | 108.17945 | 18867 ft | 432 kts | 174° |
| 2026-04-21 15:02 | 14.98794 | 108.18113 | 18913 ft | 435 kts | 180° |
| 2026-04-21 15:02 | 14.95746 | 108.17993 | 19046 ft | 442 kts | 184° |
| 2026-04-21 15:02 | 14.92683 | 108.17729 | 19553 ft | 441 kts | 185° |
| 2026-04-21 15:03 | 14.89604 | 108.17469 | 19888 ft | 446 kts | 184° |
| 2026-04-21 15:03 | 14.86498 | 108.17265 | 20276 ft | 449 kts | 183° |
| 2026-04-21 15:03 | 14.83367 | 108.17126 | 20683 ft | 452 kts | 182° |
| 2026-04-21 15:03 | 14.80214 | 108.17037 | 21057 ft | 454 kts | 181° |
| 2026-04-21 15:04 | 14.77044 | 108.16976 | 21430 ft | 457 kts | 181° |
| 2026-04-21 15:04 | 14.73850 | 108.16926 | 21780 ft | 461 kts | 180° |
| 2026-04-21 15:04 | 14.70634 | 108.16874 | 22122 ft | 464 kts | 181° |
| 2026-04-21 15:04 | 14.67438 | 108.16816 | 22471 ft | 467 kts | 181° |
| 2026-04-21 15:05 | 14.64183 | 108.16751 | 22797 ft | 469 kts | 181° |
| 2026-04-21 15:05 | 14.57614 | 108.16605 | 23458 ft | 475 kts | 181° |
| 2026-04-21 15:05 | 14.54300 | 108.16531 | 23742 ft | 478 kts | 181° |
| 2026-04-21 15:06 | 14.50968 | 108.16458 | 24035 ft | 480 kts | 181° |
| 2026-04-21 15:06 | 14.47627 | 108.16385 | 24320 ft | 481 kts | 181° |
| 2026-04-21 15:06 | 14.44271 | 108.16312 | 24604 ft | 484 kts | 181° |
| 2026-04-21 15:06 | 14.40901 | 108.16241 | 24875 ft | 486 kts | 181° |
| 2026-04-21 15:07 | 14.37515 | 108.16174 | 25157 ft | 488 kts | 181° |
| 2026-04-21 15:07 | 14.34112 | 108.16109 | 25428 ft | 490 kts | 181° |
| 2026-04-21 15:07 | 14.30700 | 108.16042 | 25696 ft | 492 kts | 181° |
| 2026-04-21 15:07 | 14.27269 | 108.15974 | 25969 ft | 494 kts | 181° |
| 2026-04-21 15:08 | 14.23826 | 108.15902 | 26212 ft | 496 kts | 181° |
| 2026-04-21 15:08 | 14.20365 | 108.15829 | 26460 ft | 498 kts | 180° |
| 2026-04-21 15:08 | 14.16892 | 108.15754 | 26716 ft | 500 kts | 180° |
| 2026-04-21 15:08 | 14.13403 | 108.15680 | 26977 ft | 502 kts | 180° |
| 2026-04-21 15:09 | 14.09904 | 108.15607 | 27239 ft | 504 kts | 180° |
| 2026-04-21 15:09 | 14.06390 | 108.15533 | 27488 ft | 506 kts | 180° |
| 2026-04-21 15:09 | 14.02862 | 108.15460 | 27721 ft | 508 kts | 180° |
| 2026-04-21 15:09 | 13.99358 | 108.15387 | 27937 ft | 511 kts | 180° |
| 2026-04-21 15:10 | 13.95801 | 108.15309 | 28164 ft | 512 kts | 180° |
| 2026-04-21 15:10 | 13.92232 | 108.15226 | 28408 ft | 514 kts | 181° |
| 2026-04-21 15:10 | 13.88652 | 108.15141 | 28649 ft | 515 kts | 181° |
| 2026-04-21 15:10 | 13.85060 | 108.15054 | 28825 ft | 518 kts | 180° |
| 2026-04-21 15:11 | 13.81451 | 108.14968 | 29026 ft | 520 kts | 180° |
| 2026-04-21 15:11 | 13.77830 | 108.14883 | 29263 ft | 520 kts | 180° |
| 2026-04-21 15:11 | 13.74216 | 108.14799 | 29609 ft | 519 kts | 180° |
| 2026-04-21 15:11 | 13.70615 | 108.14715 | 29959 ft | 517 kts | 180° |
| 2026-04-21 15:12 | 13.67016 | 108.14632 | 30236 ft | 517 kts | 180° |
| 2026-04-21 15:12 | 13.63421 | 108.14549 | 30486 ft | 517 kts | 180° |
| 2026-04-21 15:12 | 13.59824 | 108.14466 | 30724 ft | 517 kts | 181° |
| 2026-04-21 15:12 | 13.56226 | 108.14383 | 30986 ft | 517 kts | 181° |
| 2026-04-21 15:13 | 13.52633 | 108.14302 | 31266 ft | 516 kts | 180° |
| 2026-04-21 15:13 | 13.49048 | 108.14223 | 31548 ft | 516 kts | 180° |
| 2026-04-21 15:13 | 13.45506 | 108.14147 | 31773 ft | 516 kts | 180° |
| 2026-04-21 15:13 | 13.41896 | 108.14070 | 31842 ft | 519 kts | 180° |
| 2026-04-21 15:14 | 13.34675 | 108.13913 | 31893 ft | 518 kts | 180° |
| 2026-04-21 15:14 | 13.27495 | 108.13749 | 31911 ft | 515 kts | 181° |
| 2026-04-21 15:15 | 13.20340 | 108.13575 | 31890 ft | 513 kts | 181° |
| 2026-04-21 15:15 | 13.13205 | 108.13401 | 31919 ft | 513 kts | 180° |
| 2026-04-21 15:16 | 13.06056 | 108.13231 | 31913 ft | 513 kts | 180° |
| 2026-04-21 15:16 | 12.98924 | 108.13064 | 31897 ft | 514 kts | 180° |
| 2026-04-21 15:17 | 12.91763 | 108.12894 | 31915 ft | 515 kts | 180° |
| 2026-04-21 15:17 | 12.84588 | 108.12724 | 31908 ft | 516 kts | 180° |
| 2026-04-21 15:18 | 12.77405 | 108.12553 | 31912 ft | 516 kts | 180° |
| 2026-04-21 15:18 | 12.70224 | 108.12383 | 31901 ft | 516 kts | 180° |
| 2026-04-21 15:19 | 12.63052 | 108.12218 | 31920 ft | 515 kts | 180° |
| 2026-04-21 15:19 | 12.55917 | 108.12076 | 31923 ft | 515 kts | 180° |
| 2026-04-21 15:20 | 12.48756 | 108.11939 | 31920 ft | 514 kts | 180° |
| 2026-04-21 15:20 | 12.41604 | 108.11798 | 31914 ft | 513 kts | 180° |
| 2026-04-21 15:21 | 12.34466 | 108.11655 | 31928 ft | 513 kts | 180° |
| 2026-04-21 15:21 | 12.27338 | 108.11512 | 31940 ft | 512 kts | 180° |
| 2026-04-21 15:22 | 12.20276 | 108.11370 | 31671 ft | 503 kts | 180° |
| 2026-04-21 15:22 | 12.16755 | 108.11300 | 30985 ft | 506 kts | 180° |
| 2026-04-21 15:22 | 12.13253 | 108.11230 | 30499 ft | 503 kts | 180° |
| 2026-04-21 15:23 | 12.09763 | 108.11160 | 29970 ft | 500 kts | 180° |
| 2026-04-21 15:23 | 12.06291 | 108.11091 | 29406 ft | 497 kts | 180° |
| 2026-04-21 15:23 | 12.02853 | 108.11022 | 28911 ft | 492 kts | 180° |
| 2026-04-21 15:23 | 11.99465 | 108.10954 | 28823 ft | 478 kts | 180° |
| 2026-04-21 15:24 | 11.92933 | 108.10662 | 28772 ft | 470 kts | 192° |
| 2026-04-21 15:24 | 11.89882 | 108.09479 | 28782 ft | 474 kts | 213° |
| 2026-04-21 15:24 | 11.87291 | 108.07406 | 28799 ft | 472 kts | 222° |
| 2026-04-21 15:25 | 11.82257 | 108.03156 | 28791 ft | 471 kts | 212° |
| 2026-04-21 15:25 | 11.76188 | 108.00509 | 28824 ft | 481 kts | 192° |
| 2026-04-21 15:26 | 11.69603 | 107.99968 | 28795 ft | 472 kts | 173° |
| 2026-04-21 15:26 | 11.63321 | 108.01564 | 28779 ft | 464 kts | 154° |
| 2026-04-21 15:27 | 11.60482 | 108.03094 | 28571 ft | 460 kts | 145° |
| 2026-04-21 15:27 | 11.57947 | 108.05043 | 28098 ft | 454 kts | 135° |
| 2026-04-21 15:27 | 11.55788 | 108.07368 | 27605 ft | 449 kts | 126° |
| 2026-04-21 15:27 | 11.54065 | 108.10002 | 27093 ft | 444 kts | 116° |
| 2026-04-21 15:28 | 11.52806 | 108.12859 | 26619 ft | 439 kts | 108° |
| 2026-04-21 15:28 | 11.51833 | 108.15792 | 26177 ft | 435 kts | 105° |
| 2026-04-21 15:28 | 11.50937 | 108.18715 | 25713 ft | 428 kts | 108° |
| 2026-04-21 15:28 | 11.49762 | 108.21482 | 25196 ft | 424 kts | 118° |
| 2026-04-21 15:29 | 11.48107 | 108.23941 | 25074 ft | 421 kts | 129° |
| 2026-04-21 15:29 | 11.46015 | 108.26060 | 24963 ft | 429 kts | 140° |
| 2026-04-21 15:29 | 11.43535 | 108.27838 | 24443 ft | 443 kts | 150° |
| 2026-04-21 15:29 | 11.40792 | 108.29114 | 24374 ft | 436 kts | 160° |
| 2026-04-21 15:30 | 11.37877 | 108.29892 | 24217 ft | 432 kts | 170° |
| 2026-04-21 15:30 | 11.34898 | 108.30170 | 23917 ft | 429 kts | 181° |
| 2026-04-21 15:30 | 11.31971 | 108.29593 | 23454 ft | 434 kts | 204° |
| 2026-04-21 15:30 | 11.29442 | 108.27942 | 23002 ft | 433 kts | 224° |
| 2026-04-21 15:31 | 11.27519 | 108.25607 | 22739 ft | 429 kts | 238° |
| 2026-04-21 15:31 | 11.26122 | 108.22946 | 22480 ft | 424 kts | 247° |
| 2026-04-21 15:31 | 11.25068 | 108.20148 | 22169 ft | 423 kts | 252° |
| 2026-04-21 15:31 | 11.24192 | 108.17285 | 21594 ft | 425 kts | 254° |
| 2026-04-21 15:32 | 11.23393 | 108.14385 | 21155 ft | 424 kts | 255° |
| 2026-04-21 15:32 | 11.22619 | 108.11502 | 20908 ft | 420 kts | 255° |
| 2026-04-21 15:32 | 11.21843 | 108.08659 | 20756 ft | 414 kts | 255° |
| 2026-04-21 15:32 | 11.21060 | 108.05862 | 20549 ft | 409 kts | 254° |
| 2026-04-21 15:33 | 11.20265 | 108.03087 | 20170 ft | 407 kts | 254° |
| 2026-04-21 15:33 | 11.19463 | 108.00334 | 19772 ft | 405 kts | 253° |
| 2026-04-21 15:33 | 11.18661 | 107.97599 | 19381 ft | 401 kts | 253° |
| 2026-04-21 15:33 | 11.17864 | 107.94882 | 18944 ft | 400 kts | 253° |
| 2026-04-21 15:34 | 11.17071 | 107.92172 | 18510 ft | 399 kts | 253° |
| 2026-04-21 15:34 | 11.16280 | 107.89472 | 18067 ft | 397 kts | 253° |
| 2026-04-21 15:34 | 11.15492 | 107.86783 | 17596 ft | 395 kts | 253° |
| 2026-04-21 15:34 | 11.14711 | 107.84120 | 17212 ft | 391 kts | 253° |
| 2026-04-21 15:35 | 11.13937 | 107.81484 | 16837 ft | 387 kts | 253° |
| 2026-04-21 15:35 | 11.13179 | 107.78907 | 16439 ft | 383 kts | 253° |
| 2026-04-21 15:35 | 11.12418 | 107.76316 | 16039 ft | 380 kts | 253° |
| 2026-04-21 15:35 | 11.11658 | 107.73732 | 15628 ft | 378 kts | 253° |
| 2026-04-21 15:36 | 11.10908 | 107.71180 | 15219 ft | 375 kts | 253° |
| 2026-04-21 15:36 | 11.10162 | 107.68642 | 14822 ft | 373 kts | 253° |
| 2026-04-21 15:36 | 11.09418 | 107.66112 | 14467 ft | 374 kts | 253° |
| 2026-04-21 15:36 | 11.08675 | 107.63585 | 14189 ft | 371 kts | 253° |
| 2026-04-21 15:37 | 11.07935 | 107.61070 | 13908 ft | 370 kts | 253° |
| 2026-04-21 15:37 | 11.07199 | 107.58571 | 13545 ft | 369 kts | 253° |
| 2026-04-21 15:37 | 11.06462 | 107.56068 | 13096 ft | 368 kts | 253° |
| 2026-04-21 15:37 | 11.05739 | 107.53613 | 12691 ft | 366 kts | 253° |
| 2026-04-21 15:38 | 11.05013 | 107.51145 | 12283 ft | 363 kts | 253° |
| 2026-04-21 15:38 | 11.04290 | 107.48692 | 11875 ft | 361 kts | 253° |
| 2026-04-21 15:38 | 11.03571 | 107.46252 | 11472 ft | 358 kts | 253° |
| 2026-04-21 15:38 | 11.02858 | 107.43832 | 11089 ft | 356 kts | 253° |
| 2026-04-21 15:39 | 11.02149 | 107.41427 | 10793 ft | 350 kts | 253° |
| 2026-04-21 15:39 | 11.01689 | 107.39869 | 10705 ft | 344 kts | 253° |
| 2026-04-21 15:39 | 11.00784 | 107.36808 | 10479 ft | 331 kts | 253° |
| 2026-04-21 15:39 | 11.00130 | 107.34599 | 10328 ft | 321 kts | 253° |
| 2026-04-21 15:40 | 10.99702 | 107.33158 | 10081 ft | 323 kts | 253° |
| 2026-04-21 15:40 | 10.99032 | 107.30895 | 9711 ft | 337 kts | 253° |
| 2026-04-21 15:40 | 10.98356 | 107.28612 | 9698 ft | 344 kts | 253° |
| 2026-04-21 15:40 | 10.97665 | 107.26281 | 9814 ft | 345 kts | 253° |
| 2026-04-21 15:41 | 10.96970 | 107.23938 | 9782 ft | 342 kts | 253° |
| 2026-04-21 15:41 | 10.96299 | 107.21679 | 9657 ft | 325 kts | 253° |
| 2026-04-21 15:41 | 10.95665 | 107.19546 | 9437 ft | 307 kts | 253° |
| 2026-04-21 15:41 | 10.95059 | 107.17513 | 9035 ft | 295 kts | 253° |
| 2026-04-21 15:42 | 10.94476 | 107.15552 | 8568 ft | 285 kts | 253° |
| 2026-04-21 15:42 | 10.93905 | 107.13629 | 7997 ft | 285 kts | 254° |
| 2026-04-21 15:42 | 10.93331 | 107.11697 | 7682 ft | 283 kts | 254° |
| 2026-04-21 15:42 | 10.92765 | 107.09788 | 7418 ft | 281 kts | 254° |
| 2026-04-21 15:43 | 10.92204 | 107.07894 | 7150 ft | 278 kts | 254° |
| 2026-04-21 15:43 | 10.91646 | 107.06019 | 6846 ft | 277 kts | 254° |
| 2026-04-21 15:43 | 10.91094 | 107.04157 | 6673 ft | 269 kts | 254° |
| 2026-04-21 15:43 | 10.90559 | 107.02358 | 6689 ft | 266 kts | 254° |
| 2026-04-21 15:44 | 10.90012 | 107.00516 | 6504 ft | 280 kts | 254° |
| 2026-04-21 15:44 | 10.89446 | 106.98605 | 6129 ft | 282 kts | 254° |
| 2026-04-21 15:44 | 10.88883 | 106.96710 | 5751 ft | 273 kts | 254° |
| 2026-04-21 15:44 | 10.88341 | 106.94893 | 5429 ft | 266 kts | 254° |
| 2026-04-21 15:45 | 10.87812 | 106.93119 | 5118 ft | 265 kts | 254° |
| 2026-04-21 15:45 | 10.87286 | 106.91357 | 4930 ft | 257 kts | 255° |
| 2026-04-21 15:45 | 10.87071 | 106.89562 | 4545 ft | 253 kts | 279° |
| 2026-04-21 15:45 | 10.87441 | 106.87834 | 4258 ft | 249 kts | 283° |
| 2026-04-21 15:46 | 10.87788 | 106.86089 | 3961 ft | 253 kts | 279° |
| 2026-04-21 15:46 | 10.88069 | 106.84315 | 3597 ft | 254 kts | 278° |
| 2026-04-21 15:46 | 10.88326 | 106.82558 | 3309 ft | 255 kts | 272° |
| 2026-04-21 15:46 | 10.87990 | 106.80820 | 2993 ft | 251 kts | 243° |
| 2026-04-21 15:47 | 10.87261 | 106.79200 | 2652 ft | 254 kts | 244° |
| 2026-04-21 15:47 | 10.86665 | 106.77523 | 2344 ft | 250 kts | 247° |
| 2026-04-21 15:47 | 10.86095 | 106.75901 | 2166 ft | 239 kts | 245° |
| 2026-04-21 15:47 | 10.85501 | 106.74325 | 1643 ft | 237 kts | 244° |
| 2026-04-21 15:48 | 10.84926 | 106.72809 | 1353 ft | 225 kts | 245° |
| 2026-04-21 15:48 | 10.84383 | 106.71362 | 1027 ft | 210 kts | 246° |
| 2026-04-21 15:48 | 10.83883 | 106.70034 | 797 ft | 191 kts | 246° |
| 2026-04-21 15:48 | 10.83435 | 106.68838 | 571 ft | 172 kts | 246° |
| 2026-04-21 15:49 | 10.83023 | 106.67738 | 359 ft | 165 kts | 248° |
| 2026-04-21 15:49 | 10.82602 | 106.66623 | 158 ft | 172 kts | 249° |
| 2026-04-21 15:49 | 10.82185 | 106.65510 | 46 ft | 142 kts | 249° |
| 2026-04-21 15:49 | 10.81993 | 106.64993 | 39 ft | 40 kts | 251° |
| 2026-04-21 15:50 | 10.81900 | 106.64748 | 40 ft | 30 kts | 249° |
| 2026-04-21 15:50 | 10.81827 | 106.64557 | 41 ft | 26 kts | 244° |
| 2026-04-21 15:50 | 10.81736 | 106.64422 | 40 ft | 21 kts | 228° |
| 2026-04-21 15:50 | 10.81663 | 106.64348 | 39 ft | 14 kts | 223° |
| 2026-04-21 15:51 | 10.81618 | 106.64314 | 39 ft | 8 kts | 209° |
| 2026-04-21 15:51 | 10.81592 | 106.64303 | 39 ft | 1 kts | 197° |
| 2026-04-21 15:51 | 10.81531 | 106.64299 | 40 ft | 11 kts | 166° |
| 2026-04-21 15:51 | 10.81440 | 106.64333 | 42 ft | 17 kts | 158° |
| 2026-04-21 15:52 | 10.81308 | 106.64381 | 41 ft | 21 kts | 158° |
| 2026-04-21 15:52 | 10.81266 | 106.64490 | 43 ft | 24 kts | 75° |
| 2026-04-21 15:52 | 10.81333 | 106.64676 | 45 ft | 29 kts | 69° |
| 2026-04-21 15:52 | 10.81404 | 106.64859 | 47 ft | 25 kts | 68° |
| 2026-04-21 15:53 | 10.81464 | 106.65022 | 44 ft | 24 kts | 70° |
| 2026-04-21 15:53 | 10.81525 | 106.65177 | 42 ft | 24 kts | 68° |
| 2026-04-21 15:53 | 10.81583 | 106.65336 | 40 ft | 24 kts | 70° |
| 2026-04-21 15:53 | 10.81644 | 106.65487 | 39 ft | 22 kts | 68° |
| 2026-04-21 15:54 | 10.81671 | 106.65554 | 40 ft | 4 kts | 69° |
| 2026-04-21 15:54 | 10.81686 | 106.65594 | 40 ft | 10 kts | 69° |
| 2026-04-21 15:54 | 10.81712 | 106.65667 | 40 ft | 11 kts | 71° |
| 2026-04-21 15:54 | 10.81730 | 106.65728 | 39 ft | 4 kts | 75° |
| 2026-04-21 15:55 | 10.81720 | 106.65772 | 38 ft | 10 kts | 112° |
| 2026-04-21 15:55 | 10.81687 | 106.65846 | 38 ft | 9 kts | 104° |
| 2026-04-21 15:55 | 10.81692 | 106.65918 | 41 ft | 12 kts | 78° |
| 2026-04-21 15:55 | 10.81708 | 106.65970 | 41 ft | 0 kts | 71° |
| 2026-04-21 15:56 | 10.81716 | 106.66017 | 41 ft | 11 kts | 98° |
| 2026-04-21 15:57 | 10.81602 | 106.66052 | 41 ft | 26 kts | 184° |
| 2026-04-21 15:57 | 10.81489 | 106.66038 | 41 ft | 19 kts | 187° |
| 2026-04-21 15:57 | 10.81407 | 106.65985 | 41 ft | 14 kts | 259° |
| 2026-04-21 15:57 | 10.81405 | 106.65960 | 41 ft | 0 kts | 269° |
| 2026-04-21 15:58 | 10.81406 | 106.65950 | 41 ft | 0 kts | 276° |